Time,TemperatureF,DewpointF,PressureIn,WindDirection,WindDirectionDegrees,WindSpeedMPH,WindSpeedGustMPH,Humidity,HourlyPrecipIn,Conditions,Clouds,dailyrainin,SoftwareType,DateUTC
2013-08-21 00:00:00,64.1,61.7,30.09,SSW,212,0.0,1.0,92,0.00,,,0.00,Wunderground v.1.15,2013-08-21 04:00:00,
2013-08-21 00:05:00,64.0,61.6,30.09,SSW,212,0.0,1.0,92,0.00,,,0.00,Wunderground v.1.15,2013-08-21 04:05:00,
2013-08-21 00:10:00,63.9,61.8,30.09,SSW,212,0.0,1.0,93,0.00,,,0.00,Wunderground v.1.15,2013-08-21 04:10:00,
2013-08-21 00:15:00,63.9,61.8,30.09,SSW,212,0.0,1.0,93,0.00,,,0.00,Wunderground v.1.15,2013-08-21 04:15:00,
2013-08-21 00:20:00,63.8,61.7,30.10,SSW,212,0.0,1.0,93,0.00,,,0.00,Wunderground v.1.15,2013-08-21 04:20:00,
2013-08-21 00:25:00,63.8,61.7,30.10,SSW,212,0.0,1.0,93,0.00,,,0.00,Wunderground v.1.15,2013-08-21 04:25:00,
2013-08-21 00:30:00,63.7,61.6,30.10,SSW,212,0.0,1.0,93,0.00,,,0.00,Wunderground v.1.15,2013-08-21 04:30:00,
2013-08-21 00:35:00,63.6,61.5,30.09,SSW,212,0.0,1.0,93,0.00,,,0.00,Wunderground v.1.15,2013-08-21 04:35:00,
2013-08-21 00:40:00,63.5,61.7,30.10,SSW,212,0.0,1.0,94,0.00,,,0.00,Wunderground v.1.15,2013-08-21 04:40:00,
2013-08-21 00:45:00,63.4,61.6,30.10,SSW,212,0.0,1.0,94,0.00,,,0.00,Wunderground v.1.15,2013-08-21 04:45:00,
2013-08-21 00:50:00,63.3,61.5,30.10,SSW,212,0.0,1.0,94,0.00,,,0.00,Wunderground v.1.15,2013-08-21 04:50:00,
2013-08-21 01:00:00,63.2,61.4,30.10,SSW,212,0.0,1.0,94,0.00,,,0.00,Wunderground v.1.15,2013-08-21 05:00:00,
2013-08-21 01:05:00,63.1,61.3,30.10,SSW,212,0.0,1.0,94,0.00,,,0.00,Wunderground v.1.15,2013-08-21 05:05:00,
2013-08-21 01:10:00,63.2,61.7,30.10,SSW,212,0.0,1.0,95,0.00,,,0.00,Wunderground v.1.15,2013-08-21 05:10:00,
2013-08-21 01:15:00,63.1,61.3,30.10,SSW,212,0.0,1.0,94,0.00,,,0.00,Wunderground v.1.15,2013-08-21 05:15:00,
2013-08-21 01:20:00,63.0,61.5,30.10,SSW,212,0.0,1.0,95,0.00,,,0.00,Wunderground v.1.15,2013-08-21 05:20:00,
2013-08-21 01:25:00,63.0,61.5,30.10,SSW,212,0.0,1.0,95,0.00,,,0.00,Wunderground v.1.15,2013-08-21 05:25:00,
2013-08-21 01:30:00,63.0,61.5,30.10,SSW,212,0.0,1.0,95,0.00,,,0.00,Wunderground v.1.15,2013-08-21 05:30:00,
2013-08-21 01:40:00,63.0,61.5,30.10,SSW,212,0.0,1.0,95,0.00,,,0.00,Wunderground v.1.15,2013-08-21 05:40:00,
2013-08-21 01:45:00,62.9,61.4,30.10,SSW,212,0.0,1.0,95,0.00,,,0.00,Wunderground v.1.15,2013-08-21 05:45:00,
2013-08-21 01:50:00,62.9,61.4,30.10,SSW,212,0.0,1.0,95,0.00,,,0.00,Wunderground v.1.15,2013-08-21 05:50:00,
2013-08-21 01:55:00,62.8,61.3,30.10,SSW,212,0.0,1.0,95,0.00,,,0.00,Wunderground v.1.15,2013-08-21 05:55:00,
2013-08-21 02:00:00,62.7,61.2,30.10,SSW,212,0.0,1.0,95,0.00,,,0.00,Wunderground v.1.15,2013-08-21 06:00:00,
2013-08-21 02:05:00,62.7,61.2,30.10,SSW,212,0.0,1.0,95,0.00,,,0.00,Wunderground v.1.15,2013-08-21 06:05:00,
2013-08-21 02:15:00,62.6,61.4,30.11,SSW,212,0.0,1.0,96,0.00,,,0.00,Wunderground v.1.15,2013-08-21 06:15:00,
2013-08-21 02:20:00,62.5,61.3,30.10,SSW,212,0.0,1.0,96,0.00,,,0.00,Wunderground v.1.15,2013-08-21 06:20:00,
2013-08-21 02:25:00,62.5,61.3,30.11,SSW,212,0.0,1.0,96,0.00,,,0.00,Wunderground v.1.15,2013-08-21 06:25:00,
2013-08-21 02:30:00,62.5,61.3,30.11,SSW,212,0.0,1.0,96,0.00,,,0.00,Wunderground v.1.15,2013-08-21 06:30:00,
2013-08-21 02:35:00,62.4,61.2,30.11,SSW,212,0.0,1.0,96,0.00,,,0.00,Wunderground v.1.15,2013-08-21 06:35:00,
2013-08-21 02:40:00,62.4,61.2,30.11,SSW,212,0.0,1.0,96,0.00,,,0.00,Wunderground v.1.15,2013-08-21 06:40:00,
2013-08-21 02:50:00,62.3,61.1,30.10,SSW,212,0.0,1.0,96,0.00,,,0.00,Wunderground v.1.15,2013-08-21 06:50:00,
2013-08-21 02:55:00,62.3,61.1,30.11,SSW,212,0.0,1.0,96,0.00,,,0.00,Wunderground v.1.15,2013-08-21 06:55:00,
2013-08-21 03:00:00,62.4,61.2,30.11,SSW,212,0.0,1.0,96,0.00,,,0.00,Wunderground v.1.15,2013-08-21 07:00:00,
2013-08-21 03:05:00,62.4,61.5,30.11,SSW,212,0.0,1.0,97,0.00,,,0.00,Wunderground v.1.15,2013-08-21 07:05:00,
2013-08-21 03:10:00,62.5,61.6,30.11,SSW,212,0.0,1.0,97,0.00,,,0.00,Wunderground v.1.15,2013-08-21 07:10:00,
2013-08-21 03:15:00,62.7,61.8,30.11,SSW,212,0.0,1.0,97,0.00,,,0.00,Wunderground v.1.15,2013-08-21 07:15:00,
2013-08-21 03:20:00,62.7,61.8,30.11,SSW,212,0.0,1.0,97,0.00,,,0.00,Wunderground v.1.15,2013-08-21 07:20:00,
2013-08-21 03:25:00,62.8,61.9,30.11,SSW,212,0.0,1.0,97,0.00,,,0.00,Wunderground v.1.15,2013-08-21 07:25:00,
2013-08-21 03:30:00,62.9,62.0,30.11,SSW,212,0.0,1.0,97,0.00,,,0.00,Wunderground v.1.15,2013-08-21 07:30:00,
2013-08-21 03:35:00,63.1,62.2,30.11,SSW,212,0.0,1.0,97,0.00,,,0.00,Wunderground v.1.15,2013-08-21 07:35:00,
2013-08-21 03:40:00,63.1,62.2,30.11,SSW,212,0.0,1.0,97,0.00,,,0.00,Wunderground v.1.15,2013-08-21 07:40:00,
2013-08-21 03:45:00,63.1,62.2,30.11,SSW,212,0.0,1.0,97,0.00,,,0.00,Wunderground v.1.15,2013-08-21 07:45:00,
2013-08-21 03:55:00,63.1,62.2,30.11,SSW,212,0.0,1.0,97,0.00,,,0.00,Wunderground v.1.15,2013-08-21 07:55:00,
2013-08-21 04:00:00,63.0,62.1,30.11,SSW,212,0.0,1.0,97,0.00,,,0.00,Wunderground v.1.15,2013-08-21 08:00:00,
2013-08-21 04:05:00,63.1,62.2,30.11,SSW,212,0.0,1.0,97,0.00,,,0.00,Wunderground v.1.15,2013-08-21 08:05:00,
2013-08-21 04:10:00,63.1,62.2,30.11,SSW,212,0.0,1.0,97,0.00,,,0.00,Wunderground v.1.15,2013-08-21 08:10:00,
2013-08-21 04:15:00,63.1,62.2,30.11,SSW,212,0.0,1.0,97,0.00,,,0.00,Wunderground v.1.15,2013-08-21 08:15:00,
2013-08-21 04:25:00,63.0,62.1,30.11,SSW,212,0.0,1.0,97,0.00,,,0.00,Wunderground v.1.15,2013-08-21 08:25:00,
2013-08-21 04:30:00,62.9,62.0,30.11,SSW,212,0.0,1.0,97,0.00,,,0.00,Wunderground v.1.15,2013-08-21 08:30:00,
2013-08-21 04:35:00,63.0,62.1,30.11,SSW,212,0.0,1.0,97,0.00,,,0.00,Wunderground v.1.15,2013-08-21 08:35:00,
2013-08-21 04:40:00,62.9,62.0,30.11,SSW,212,0.0,1.0,97,0.00,,,0.00,Wunderground v.1.15,2013-08-21 08:40:00,
2013-08-21 04:45:00,62.8,61.9,30.11,SSW,212,0.0,1.0,97,0.00,,,0.00,Wunderground v.1.15,2013-08-21 08:45:00,
2013-08-21 04:50:00,62.6,61.7,30.11,SSW,212,0.0,1.0,97,0.00,,,0.00,Wunderground v.1.15,2013-08-21 08:50:00,
2013-08-21 05:00:00,62.4,61.5,30.11,SSW,212,0.0,1.0,97,0.00,,,0.00,Wunderground v.1.15,2013-08-21 09:00:00,
2013-08-21 05:05:00,62.3,61.4,30.11,SSW,212,0.0,1.0,97,0.00,,,0.00,Wunderground v.1.15,2013-08-21 09:05:00,
2013-08-21 05:10:00,62.3,61.4,30.11,SSW,212,0.0,1.0,97,0.00,,,0.00,Wunderground v.1.15,2013-08-21 09:10:00,
2013-08-21 05:15:00,62.3,61.4,30.11,SSW,212,0.0,1.0,97,0.00,,,0.00,Wunderground v.1.15,2013-08-21 09:15:00,
2013-08-21 05:20:00,62.2,61.3,30.12,SSW,212,0.0,1.0,97,0.00,,,0.00,Wunderground v.1.15,2013-08-21 09:20:00,
2013-08-21 05:30:00,62.2,61.3,30.12,SSW,212,0.0,1.0,97,0.00,,,0.00,Wunderground v.1.15,2013-08-21 09:30:00,
2013-08-21 05:35:00,62.2,61.3,30.12,SSW,212,0.0,1.0,97,0.00,,,0.00,Wunderground v.1.15,2013-08-21 09:35:00,
2013-08-21 05:40:00,62.3,61.7,30.12,SSW,212,0.0,1.0,98,0.00,,,0.00,Wunderground v.1.15,2013-08-21 09:40:00,
2013-08-21 05:45:00,62.3,61.4,30.12,SSW,212,0.0,1.0,97,0.00,,,0.00,Wunderground v.1.15,2013-08-21 09:45:00,
2013-08-21 05:50:00,62.2,61.3,30.12,SSW,212,0.0,1.0,97,0.00,,,0.00,Wunderground v.1.15,2013-08-21 09:50:00,
2013-08-21 05:55:00,62.1,61.2,30.12,SSW,212,0.0,1.0,97,0.00,,,0.00,Wunderground v.1.15,2013-08-21 09:55:00,
2013-08-21 06:05:00,62.3,61.7,30.13,SSW,213,0.0,1.0,98,0.00,,,0.00,Wunderground v.1.15,2013-08-21 10:05:00,
2013-08-21 06:10:00,62.3,61.4,30.13,SSW,213,0.0,1.0,97,0.00,,,0.00,Wunderground v.1.15,2013-08-21 10:10:00,
2013-08-21 06:15:00,62.3,61.7,30.13,SSW,213,0.0,1.0,98,0.00,,,0.00,Wunderground v.1.15,2013-08-21 10:15:00,
2013-08-21 06:20:00,62.4,61.8,30.13,SSW,213,0.0,1.0,98,0.00,,,0.00,Wunderground v.1.15,2013-08-21 10:20:00,
2013-08-21 06:25:00,62.5,61.9,30.13,SSW,213,0.0,1.0,98,0.00,,,0.00,Wunderground v.1.15,2013-08-21 10:25:00,
2013-08-21 06:30:00,62.5,61.9,30.13,SSW,213,0.0,1.0,98,0.00,,,0.00,Wunderground v.1.15,2013-08-21 10:30:00,
2013-08-21 06:40:00,62.4,61.8,30.13,SSW,213,0.0,1.0,98,0.00,,,0.00,Wunderground v.1.15,2013-08-21 10:40:00,
2013-08-21 06:45:00,62.6,62.0,30.14,SSW,213,0.0,1.0,98,0.00,,,0.00,Wunderground v.1.15,2013-08-21 10:45:00,
2013-08-21 06:50:00,62.8,62.2,30.14,SSW,213,0.0,1.0,98,0.00,,,0.00,Wunderground v.1.15,2013-08-21 10:50:00,
2013-08-21 06:55:00,63.1,62.5,30.14,SSW,213,0.0,1.0,98,0.00,,,0.00,Wunderground v.1.15,2013-08-21 10:55:00,
2013-08-21 07:00:00,63.3,62.7,30.14,SSW,213,0.0,1.0,98,0.00,,,0.00,Wunderground v.1.15,2013-08-21 11:00:00,
2013-08-21 07:10:00,63.8,63.2,30.14,SSW,213,0.0,1.0,98,0.00,,,0.00,Wunderground v.1.15,2013-08-21 11:10:00,
2013-08-21 07:15:00,64.3,63.7,30.14,SSW,213,0.0,1.0,98,0.00,,,0.00,Wunderground v.1.15,2013-08-21 11:15:00,
2013-08-21 07:20:00,64.8,64.2,30.14,SSW,213,0.0,1.0,98,0.00,,,0.00,Wunderground v.1.15,2013-08-21 11:20:00,
2013-08-21 07:25:00,65.6,65.0,30.14,SSW,213,0.0,1.0,98,0.00,,,0.00,Wunderground v.1.15,2013-08-21 11:25:00,
2013-08-21 07:30:00,66.4,65.8,30.14,SSW,213,0.0,1.0,98,0.00,,,0.00,Wunderground v.1.15,2013-08-21 11:30:00,
2013-08-21 07:35:00,67.5,66.9,30.15,SSW,213,0.0,1.0,98,0.00,,,0.00,Wunderground v.1.15,2013-08-21 11:35:00,
2013-08-21 07:45:00,68.0,66.8,30.15,SSW,213,0.0,1.0,96,0.00,,,0.00,Wunderground v.1.15,2013-08-21 11:45:00,
2013-08-21 07:50:00,68.8,67.3,30.15,SSW,213,0.0,1.0,95,0.00,,,0.00,Wunderground v.1.15,2013-08-21 11:50:00,
2013-08-21 07:55:00,69.2,67.4,30.15,SSW,213,0.0,1.0,94,0.00,,,0.00,Wunderground v.1.15,2013-08-21 11:55:00,
2013-08-21 08:00:00,69.6,67.5,30.15,SSW,213,0.0,1.0,93,0.00,,,0.00,Wunderground v.1.15,2013-08-21 12:00:00,
2013-08-21 08:05:00,70.4,67.6,30.15,SSW,213,0.0,1.0,91,0.00,,,0.00,Wunderground v.1.15,2013-08-21 12:05:00,
2013-08-21 08:15:00,72.1,68.0,30.15,SSW,213,0.0,1.0,87,0.00,,,0.00,Wunderground v.1.15,2013-08-21 12:15:00,
2013-08-21 08:20:00,72.9,67.8,30.15,SSW,213,0.0,1.0,84,0.00,,,0.00,Wunderground v.1.15,2013-08-21 12:20:00,
2013-08-21 08:25:00,73.9,68.4,30.15,SSW,213,0.0,1.0,83,0.00,,,0.00,Wunderground v.1.15,2013-08-21 12:25:00,
2013-08-21 08:30:00,74.9,68.7,30.15,SSW,213,0.0,1.0,81,0.00,,,0.00,Wunderground v.1.15,2013-08-21 12:30:00,
2013-08-21 08:35:00,75.5,68.2,30.15,SSW,213,0.0,1.0,78,0.00,,,0.00,Wunderground v.1.15,2013-08-21 12:35:00,
2013-08-21 08:40:00,75.8,68.1,30.15,SSW,213,0.0,1.0,77,0.00,,,0.00,Wunderground v.1.15,2013-08-21 12:40:00,
2013-08-21 08:50:00,76.4,68.3,30.14,SSW,213,0.0,1.0,76,0.00,,,0.00,Wunderground v.1.15,2013-08-21 12:50:00,
2013-08-21 08:55:00,77.5,68.6,30.14,SSW,213,0.0,1.0,74,0.00,,,0.00,Wunderground v.1.15,2013-08-21 12:55:00,
2013-08-21 09:00:00,78.3,68.5,30.14,SSW,213,0.0,1.0,72,0.00,,,0.00,Wunderground v.1.15,2013-08-21 13:00:00,
2013-08-21 09:05:00,79.1,68.5,30.14,SSW,213,0.0,1.0,70,0.00,,,0.00,Wunderground v.1.15,2013-08-21 13:05:00,
2013-08-21 09:10:00,79.7,68.2,30.14,SSW,213,0.0,1.0,68,0.00,,,0.00,Wunderground v.1.15,2013-08-21 13:10:00,
2013-08-21 09:20:00,80.0,67.2,30.14,SSW,213,0.0,1.0,65,0.00,,,0.00,Wunderground v.1.15,2013-08-21 13:20:00,
2013-08-21 09:25:00,80.3,67.9,30.14,SSW,213,0.0,1.0,66,0.00,,,0.00,Wunderground v.1.15,2013-08-21 13:25:00,
2013-08-21 09:30:00,79.9,65.7,30.14,WSW,252,0.0,1.0,62,0.00,,,0.00,Wunderground v.1.15,2013-08-21 13:30:00,
2013-08-21 09:35:00,79.7,66.4,30.13,WNW,285,0.0,1.0,64,0.00,,,0.00,Wunderground v.1.15,2013-08-21 13:35:00,
2013-08-21 09:40:00,80.1,66.4,30.13,WNW,285,0.0,1.0,63,0.00,,,0.00,Wunderground v.1.15,2013-08-21 13:40:00,
2013-08-21 09:45:00,80.5,65.8,30.13,SW,236,0.0,1.0,61,0.00,,,0.00,Wunderground v.1.15,2013-08-21 13:45:00,
2013-08-21 09:55:00,80.4,66.2,30.13,SW,221,3.0,3.0,62,0.00,,,0.00,Wunderground v.1.15,2013-08-21 13:55:00,
2013-08-21 10:00:00,80.6,66.4,30.13,West,264,3.0,3.0,62,0.00,,,0.00,Wunderground v.1.15,2013-08-21 14:00:00,
2013-08-21 10:05:00,81.0,67.7,30.13,SSW,203,2.0,5.0,64,0.00,,,0.00,Wunderground v.1.15,2013-08-21 14:05:00,
2013-08-21 10:10:00,81.0,66.8,30.13,WSW,242,3.0,5.0,62,0.00,,,0.00,Wunderground v.1.15,2013-08-21 14:10:00,
2013-08-21 10:15:00,80.7,66.5,30.13,WSW,256,4.0,5.0,62,0.00,,,0.00,Wunderground v.1.15,2013-08-21 14:15:00,
2013-08-21 10:25:00,81.1,67.8,30.13,SW,229,4.0,5.0,64,0.00,,,0.00,Wunderground v.1.15,2013-08-21 14:25:00,
2013-08-21 10:30:00,81.5,67.2,30.13,SW,214,4.0,5.0,62,0.00,,,0.00,Wunderground v.1.15,2013-08-21 14:30:00,
2013-08-21 10:35:00,81.4,66.7,30.13,WSW,243,4.0,5.0,61,0.00,,,0.00,Wunderground v.1.15,2013-08-21 14:35:00,
2013-08-21 10:40:00,81.3,67.0,30.13,West,264,4.0,4.0,62,0.00,,,0.00,Wunderground v.1.15,2013-08-21 14:40:00,
2013-08-21 10:45:00,81.5,67.2,30.13,West,261,4.0,6.0,62,0.00,,,0.00,Wunderground v.1.15,2013-08-21 14:45:00,
2013-08-21 10:50:00,81.4,67.1,30.13,West,275,5.0,5.0,62,0.00,,,0.00,Wunderground v.1.15,2013-08-21 14:50:00,
2013-08-21 11:00:00,81.9,67.6,30.13,SW,222,4.0,4.0,62,0.00,,,0.00,Wunderground v.1.15,2013-08-21 15:00:00,
2013-08-21 11:05:00,82.4,66.1,30.13,SW,226,6.0,8.0,58,0.00,,,0.00,Wunderground v.1.15,2013-08-21 15:05:00,
2013-08-21 11:10:00,82.2,66.4,30.13,West,264,6.0,9.0,59,0.00,,,0.00,Wunderground v.1.15,2013-08-21 15:10:00,
2013-08-21 11:15:00,82.2,66.4,30.13,WSW,254,6.0,9.0,59,0.00,,,0.00,Wunderground v.1.15,2013-08-21 15:15:00,
2013-08-21 11:20:00,82.3,66.0,30.13,West,263,6.0,7.0,58,0.00,,,0.00,Wunderground v.1.15,2013-08-21 15:20:00,
2013-08-21 11:30:00,83.3,67.5,30.12,South,171,4.0,5.0,59,0.00,,,0.00,Wunderground v.1.15,2013-08-21 15:30:00,
2013-08-21 11:35:00,83.6,67.8,30.12,SSW,206,4.0,5.0,59,0.00,,,0.00,Wunderground v.1.15,2013-08-21 15:35:00,
2013-08-21 11:40:00,83.3,67.5,30.12,WSW,239,5.0,6.0,59,0.00,,,0.00,Wunderground v.1.15,2013-08-21 15:40:00,
2013-08-21 11:45:00,83.8,67.9,30.12,SW,217,5.0,6.0,59,0.00,,,0.00,Wunderground v.1.15,2013-08-21 15:45:00,
2013-08-21 11:50:00,84.0,66.6,30.12,SSW,199,4.0,10.0,56,0.00,,,0.00,Wunderground v.1.15,2013-08-21 15:50:00,
2013-08-21 11:55:00,83.2,65.9,30.12,South,171,6.0,10.0,56,0.00,,,0.00,Wunderground v.1.15,2013-08-21 15:55:00,
2013-08-21 12:05:00,83.7,66.8,30.12,SW,232,5.0,6.0,57,0.00,,,0.00,Wunderground v.1.15,2013-08-21 16:05:00,
2013-08-21 12:10:00,83.7,67.8,30.12,SSW,211,5.0,5.0,59,0.00,,,0.00,Wunderground v.1.15,2013-08-21 16:10:00,
2013-08-21 12:15:00,84.2,68.8,30.12,SW,217,4.0,5.0,60,0.00,,,0.00,Wunderground v.1.15,2013-08-21 16:15:00,
2013-08-21 12:20:00,83.4,67.6,30.12,South,180,4.0,4.0,59,0.00,,,0.00,Wunderground v.1.15,2013-08-21 16:20:00,
2013-08-21 12:25:00,82.3,67.5,30.12,South,187,4.0,8.0,61,0.00,,,0.00,Wunderground v.1.15,2013-08-21 16:25:00,
2013-08-21 12:35:00,81.2,67.4,30.12,SW,219,7.0,7.0,63,0.00,,,0.00,Wunderground v.1.15,2013-08-21 16:35:00,
2013-08-21 12:40:00,81.9,67.1,30.11,SSW,200,6.0,6.0,61,0.00,,,0.00,Wunderground v.1.15,2013-08-21 16:40:00,
2013-08-21 12:45:00,81.9,67.6,30.11,WSW,238,6.0,6.0,62,0.00,,,0.00,Wunderground v.1.15,2013-08-21 16:45:00,
2013-08-21 12:50:00,81.4,66.2,30.11,SSW,206,7.0,7.0,60,0.00,,,0.00,Wunderground v.1.15,2013-08-21 16:50:00,
2013-08-21 12:55:00,82.0,66.7,30.11,South,180,6.0,7.0,60,0.00,,,0.00,Wunderground v.1.15,2013-08-21 16:55:00,
2013-08-21 13:00:00,81.9,66.6,30.11,West,261,5.0,5.0,60,0.00,,,0.00,Wunderground v.1.15,2013-08-21 17:00:00,
2013-08-21 13:10:00,82.0,67.2,30.11,SSW,198,5.0,7.0,61,0.00,,,0.00,Wunderground v.1.15,2013-08-21 17:10:00,
2013-08-21 13:15:00,82.1,66.4,30.11,SW,222,5.0,7.0,59,0.00,,,0.00,Wunderground v.1.15,2013-08-21 17:15:00,
2013-08-21 13:20:00,81.5,66.3,30.10,SSW,213,6.0,7.0,60,0.00,,,0.00,Wunderground v.1.15,2013-08-21 17:20:00,
2013-08-21 13:25:00,81.1,65.4,30.10,SSW,211,8.0,8.0,59,0.00,,,0.00,Wunderground v.1.15,2013-08-21 17:25:00,
2013-08-21 13:30:00,81.6,66.8,30.11,SSE,162,7.0,8.0,61,0.00,,,0.00,Wunderground v.1.15,2013-08-21 17:30:00,
2013-08-21 13:40:00,81.7,66.5,30.11,SSW,203,5.0,5.0,60,0.00,,,0.00,Wunderground v.1.15,2013-08-21 17:40:00,
2013-08-21 13:45:00,81.9,66.2,30.10,South,186,5.0,5.0,59,0.00,,,0.00,Wunderground v.1.15,2013-08-21 17:45:00,
2013-08-21 13:50:00,81.1,65.4,30.10,SW,224,6.0,6.0,59,0.00,,,0.00,Wunderground v.1.15,2013-08-21 17:50:00,
2013-08-21 13:55:00,82.0,66.3,30.10,SSW,211,7.0,7.0,59,0.00,,,0.00,Wunderground v.1.15,2013-08-21 17:55:00,
2013-08-21 14:00:00,81.5,66.3,30.10,SSW,207,6.0,13.0,60,0.00,,,0.00,Wunderground v.1.15,2013-08-21 18:00:00,
2013-08-21 14:05:00,81.1,65.9,30.10,SSW,194,8.0,13.0,60,0.00,,,0.00,Wunderground v.1.15,2013-08-21 18:05:00,
2013-08-21 14:15:00,81.4,65.7,30.10,WSW,247,7.0,8.0,59,0.00,,,0.00,Wunderground v.1.15,2013-08-21 18:15:00,
2013-08-21 14:20:00,81.6,65.9,30.10,SW,218,7.0,7.0,59,0.00,,,0.00,Wunderground v.1.15,2013-08-21 18:20:00,
2013-08-21 14:25:00,81.3,66.1,30.10,West,261,6.0,7.0,60,0.00,,,0.00,Wunderground v.1.15,2013-08-21 18:25:00,
2013-08-21 14:30:00,81.6,65.9,30.09,SSW,207,6.0,6.0,59,0.00,,,0.00,Wunderground v.1.15,2013-08-21 18:30:00,
2013-08-21 14:35:00,81.5,65.8,30.09,South,182,6.0,7.0,59,0.00,,,0.00,Wunderground v.1.15,2013-08-21 18:35:00,
2013-08-21 14:45:00,82.3,66.0,30.09,South,185,5.0,8.0,58,0.00,,,0.00,Wunderground v.1.15,2013-08-21 18:45:00,
2013-08-21 14:50:00,82.1,67.3,30.08,SW,220,5.0,5.0,61,0.00,,,0.00,Wunderground v.1.15,2013-08-21 18:50:00,
2013-08-21 14:55:00,81.9,67.1,30.08,SSW,213,6.0,6.0,61,0.00,,,0.00,Wunderground v.1.15,2013-08-21 18:55:00,
2013-08-21 15:00:00,82.0,66.3,30.09,SW,225,7.0,9.0,59,0.00,,,0.00,Wunderground v.1.15,2013-08-21 19:00:00,
2013-08-21 15:05:00,81.9,66.2,30.08,SSW,210,7.0,9.0,59,0.00,,,0.00,Wunderground v.1.15,2013-08-21 19:05:00,
2013-08-21 15:10:00,81.7,66.0,30.08,South,181,7.0,10.0,59,0.00,,,0.00,Wunderground v.1.15,2013-08-21 19:10:00,
2013-08-21 15:20:00,81.2,66.0,30.08,South,184,7.0,7.0,60,0.00,,,0.00,Wunderground v.1.15,2013-08-21 19:20:00,
2013-08-21 15:25:00,81.0,65.8,30.08,SSW,202,7.0,11.0,60,0.00,,,0.00,Wunderground v.1.15,2013-08-21 19:25:00,
2013-08-21 15:30:00,80.5,65.8,30.08,SSW,213,7.0,12.0,61,0.00,,,0.00,Wunderground v.1.15,2013-08-21 19:30:00,
2013-08-21 15:35:00,80.2,66.0,30.08,South,185,8.0,12.0,62,0.00,,,0.00,Wunderground v.1.15,2013-08-21 19:35:00,
2013-08-21 15:40:00,80.3,65.6,30.08,South,190,8.0,8.0,61,0.00,,,0.00,Wunderground v.1.15,2013-08-21 19:40:00,
2013-08-21 15:50:00,80.0,65.3,30.07,SSW,205,7.0,7.0,61,0.00,,,0.00,Wunderground v.1.15,2013-08-21 19:50:00,
2013-08-21 15:55:00,79.8,65.2,30.07,SSW,202,7.0,7.0,61,0.00,,,0.00,Wunderground v.1.15,2013-08-21 19:55:00,
2013-08-21 16:00:00,79.7,65.1,30.07,South,186,7.0,7.0,61,0.00,,,0.00,Wunderground v.1.15,2013-08-21 20:00:00,
2013-08-21 16:05:00,79.4,65.2,30.07,SW,227,7.0,7.0,62,0.00,,,0.00,Wunderground v.1.15,2013-08-21 20:05:00,
2013-08-21 16:10:00,79.6,65.4,30.07,SW,219,7.0,10.0,62,0.00,,,0.00,Wunderground v.1.15,2013-08-21 20:10:00,
2013-08-21 16:15:00,79.2,66.0,30.06,SSW,196,7.0,10.0,64,0.00,,,0.00,Wunderground v.1.15,2013-08-21 20:15:00,
2013-08-21 16:25:00,79.2,66.0,30.06,South,191,6.0,7.0,64,0.00,,,0.00,Wunderground v.1.15,2013-08-21 20:25:00,
2013-08-21 16:30:00,79.7,66.9,30.06,SSW,192,5.0,5.0,65,0.00,,,0.00,Wunderground v.1.15,2013-08-21 20:30:00,
2013-08-21 16:35:00,79.9,66.6,30.06,SSW,202,4.0,7.0,64,0.00,,,0.00,Wunderground v.1.15,2013-08-21 20:35:00,
2013-08-21 16:40:00,79.2,66.9,30.06,SW,232,6.0,8.0,66,0.00,,,0.00,Wunderground v.1.15,2013-08-21 20:40:00,
2013-08-21 16:45:00,79.1,66.3,30.06,SW,231,7.0,8.0,65,0.00,,,0.00,Wunderground v.1.15,2013-08-21 20:45:00,
2013-08-21 16:55:00,78.8,66.0,30.06,SSW,198,7.0,9.0,65,0.00,,,0.00,Wunderground v.1.15,2013-08-21 20:55:00,
2013-08-21 17:00:00,78.7,66.8,30.06,South,188,7.0,8.0,67,0.00,,,0.00,Wunderground v.1.15,2013-08-21 21:00:00,
2013-08-21 17:05:00,78.1,66.2,30.05,SSW,194,7.0,8.0,67,0.00,,,0.00,Wunderground v.1.15,2013-08-21 21:05:00,
2013-08-21 17:10:00,77.8,66.0,30.06,South,175,7.0,7.0,67,0.00,,,0.00,Wunderground v.1.15,2013-08-21 21:10:00,
2013-08-21 17:15:00,77.5,65.7,30.05,SSW,202,7.0,9.0,67,0.00,,,0.00,Wunderground v.1.15,2013-08-21 21:15:00,
2013-08-21 17:20:00,77.0,65.6,30.05,South,191,7.0,8.0,68,0.00,,,0.00,Wunderground v.1.15,2013-08-21 21:20:00,
2013-08-21 17:30:00,77.0,66.0,30.05,WSW,240,6.0,6.0,69,0.00,,,0.00,Wunderground v.1.15,2013-08-21 21:30:00,
2013-08-21 17:35:00,76.8,65.4,30.05,SSW,200,6.0,6.0,68,0.00,,,0.00,Wunderground v.1.15,2013-08-21 21:35:00,
2013-08-21 17:40:00,76.5,66.0,30.05,SSW,198,7.0,7.0,70,0.00,,,0.00,Wunderground v.1.15,2013-08-21 21:40:00,
2013-08-21 17:45:00,76.4,65.5,30.04,South,189,7.0,7.0,69,0.00,,,0.00,Wunderground v.1.15,2013-08-21 21:45:00,
2013-08-21 17:50:00,76.6,66.1,30.04,SSW,193,6.0,8.0,70,0.00,,,0.00,Wunderground v.1.15,2013-08-21 21:50:00,
2013-08-21 18:00:00,76.8,66.3,30.04,SW,221,5.0,6.0,70,0.00,,,0.00,Wunderground v.1.15,2013-08-21 22:00:00,
2013-08-21 18:05:00,76.4,65.1,30.05,SSW,198,5.0,6.0,68,0.00,,,0.00,Wunderground v.1.15,2013-08-21 22:05:00,
2013-08-21 18:10:00,75.9,65.0,30.05,SSW,202,7.0,7.0,69,0.00,,,0.00,Wunderground v.1.15,2013-08-21 22:10:00,
2013-08-21 18:15:00,75.9,65.0,30.04,SSW,211,6.0,7.0,69,0.00,,,0.00,Wunderground v.1.15,2013-08-21 22:15:00,
2013-08-21 18:20:00,75.8,65.3,30.04,South,184,6.0,6.0,70,0.00,,,0.00,Wunderground v.1.15,2013-08-21 22:20:00,
2013-08-21 18:30:00,75.2,65.6,30.04,SSW,200,5.0,5.0,72,0.00,,,0.00,Wunderground v.1.15,2013-08-21 22:30:00,
2013-08-21 18:35:00,74.8,65.2,30.04,SW,216,5.0,6.0,72,0.00,,,0.00,Wunderground v.1.15,2013-08-21 22:35:00,
2013-08-21 18:40:00,74.7,65.5,30.04,South,190,5.0,7.0,73,0.00,,,0.00,Wunderground v.1.15,2013-08-21 22:40:00,
2013-08-21 18:50:00,74.4,65.6,30.04,SSW,202,4.0,4.0,74,0.00,,,0.00,Wunderground v.1.15,2013-08-21 22:50:00,
2013-08-21 18:55:00,74.1,65.3,30.04,SSW,211,5.0,5.0,74,0.00,,,0.00,Wunderground v.1.15,2013-08-21 22:55:00,
2013-08-21 19:00:00,74.0,65.6,30.03,SSW,201,4.0,6.0,75,0.00,,,0.00,Wunderground v.1.15,2013-08-21 23:00:00,
2013-08-21 19:10:00,73.4,65.4,30.03,South,180,4.0,4.0,76,0.00,,,0.00,Wunderground v.1.15,2013-08-21 23:10:00,
2013-08-21 19:15:00,73.1,65.5,30.03,SSW,198,3.0,4.0,77,0.00,,,0.00,Wunderground v.1.15,2013-08-21 23:15:00,
2013-08-21 19:20:00,72.8,65.5,30.03,SSW,211,3.0,3.0,78,0.00,,,0.00,Wunderground v.1.15,2013-08-21 23:20:00,
2013-08-21 19:25:00,72.7,65.4,30.03,SSW,209,3.0,4.0,78,0.00,,,0.00,Wunderground v.1.15,2013-08-21 23:25:00,
2013-08-21 19:30:00,72.5,65.2,30.03,SSW,200,3.0,3.0,78,0.00,,,0.00,Wunderground v.1.15,2013-08-21 23:30:00,
2013-08-21 19:40:00,72.2,65.3,30.03,SSW,205,3.0,3.0,79,0.00,,,0.00,Wunderground v.1.15,2013-08-21 23:40:00,
2013-08-21 19:45:00,72.0,65.5,30.03,SSW,197,3.0,3.0,80,0.00,,,0.00,Wunderground v.1.15,2013-08-21 23:45:00,
2013-08-21 19:50:00,71.9,65.4,30.03,SW,223,3.0,3.0,80,0.00,,,0.00,Wunderground v.1.15,2013-08-21 23:50:00,
2013-08-21 19:55:00,71.8,65.3,30.03,SW,215,3.0,3.0,80,0.00,,,0.00,Wunderground v.1.15,2013-08-21 23:55:00,
2013-08-21 20:00:00,71.7,65.2,30.03,SW,215,2.0,3.0,80,0.00,,,0.00,Wunderground v.1.15,2013-08-22 00:00:00,
2013-08-21 20:05:00,71.4,65.3,30.03,SSW,211,2.0,3.0,81,0.00,,,0.00,Wunderground v.1.15,2013-08-22 00:05:00,
2013-08-21 20:15:00,71.0,64.9,30.03,SSW,200,3.0,4.0,81,0.00,,,0.00,Wunderground v.1.15,2013-08-22 00:15:00,
2013-08-21 20:20:00,70.9,65.1,30.03,SSW,202,3.0,3.0,82,0.00,,,0.00,Wunderground v.1.15,2013-08-22 00:20:00,
2013-08-21 20:25:00,70.9,65.1,30.03,SSW,197,4.0,4.0,82,0.00,,,0.00,Wunderground v.1.15,2013-08-22 00:25:00,
2013-08-21 20:30:00,70.9,65.1,30.04,SW,225,4.0,4.0,82,0.00,,,0.00,Wunderground v.1.15,2013-08-22 00:30:00,
2013-08-21 20:35:00,71.0,65.2,30.04,SSW,209,4.0,4.0,82,0.00,,,0.00,Wunderground v.1.15,2013-08-22 00:35:00,
2013-08-21 20:45:00,70.8,65.4,30.04,SSW,205,4.0,4.0,83,0.00,,,0.00,Wunderground v.1.15,2013-08-22 00:45:00,
2013-08-21 20:50:00,70.7,65.6,30.04,SSW,209,4.0,4.0,84,0.00,,,0.00,Wunderground v.1.15,2013-08-22 00:50:00,
2013-08-21 20:55:00,70.7,65.6,30.04,SSW,210,4.0,4.0,84,0.00,,,0.00,Wunderground v.1.15,2013-08-22 00:55:00,
2013-08-21 21:00:00,70.6,65.5,30.03,SSW,196,4.0,4.0,84,0.00,,,0.00,Wunderground v.1.15,2013-08-22 01:00:00,
2013-08-21 21:05:00,70.4,65.7,30.03,SSW,210,4.0,6.0,85,0.00,,,0.00,Wunderground v.1.15,2013-08-22 01:05:00,
2013-08-21 21:10:00,70.4,65.7,30.03,SSW,200,4.0,5.0,85,0.00,,,0.00,Wunderground v.1.15,2013-08-22 01:10:00,
2013-08-21 21:20:00,70.2,65.8,30.03,SSW,207,3.0,3.0,86,0.00,,,0.00,Wunderground v.1.15,2013-08-22 01:20:00,
2013-08-21 21:25:00,70.2,65.8,30.03,SSW,207,2.0,3.0,86,0.00,,,0.00,Wunderground v.1.15,2013-08-22 01:25:00,
2013-08-21 21:30:00,70.2,65.8,30.03,SSW,206,1.0,1.0,86,0.00,,,0.00,Wunderground v.1.15,2013-08-22 01:30:00,
2013-08-21 21:35:00,70.1,65.7,30.03,SSW,206,1.0,1.0,86,0.00,,,0.00,Wunderground v.1.15,2013-08-22 01:35:00,
2013-08-21 21:40:00,70.0,65.6,30.03,SSW,206,1.0,2.0,86,0.00,,,0.00,Wunderground v.1.15,2013-08-22 01:40:00,
2013-08-21 21:50:00,69.9,65.5,30.02,SSW,206,2.0,2.0,86,0.00,,,0.00,Wunderground v.1.15,2013-08-22 01:50:00,
2013-08-21 21:55:00,70.0,65.6,30.02,SW,219,2.0,2.0,86,0.00,,,0.00,Wunderground v.1.15,2013-08-22 01:55:00,
2013-08-21 22:00:00,70.0,65.6,30.02,SSW,206,2.0,2.0,86,0.00,,,0.00,Wunderground v.1.15,2013-08-22 02:00:00,
2013-08-21 22:05:00,70.0,65.6,30.02,SSW,205,2.0,2.0,86,0.00,,,0.00,Wunderground v.1.15,2013-08-22 02:05:00,
2013-08-21 22:10:00,70.1,65.7,30.02,SSW,208,2.0,2.0,86,0.00,,,0.00,Wunderground v.1.15,2013-08-22 02:10:00,
2013-08-21 22:15:00,70.1,65.7,30.02,SSW,208,1.0,2.0,86,0.00,,,0.00,Wunderground v.1.15,2013-08-22 02:15:00,
2013-08-21 22:25:00,70.2,65.8,30.02,SSW,208,3.0,3.0,86,0.00,,,0.00,Wunderground v.1.15,2013-08-22 02:25:00,
2013-08-21 22:30:00,70.1,65.7,30.02,SW,221,3.0,3.0,86,0.00,,,0.00,Wunderground v.1.15,2013-08-22 02:30:00,
2013-08-21 22:35:00,70.1,65.7,30.02,SW,220,2.0,3.0,86,0.00,,,0.00,Wunderground v.1.15,2013-08-22 02:35:00,
2013-08-21 22:40:00,69.9,65.5,30.02,SW,219,2.0,2.0,86,0.00,,,0.00,Wunderground v.1.15,2013-08-22 02:40:00,
2013-08-21 22:45:00,69.7,65.3,30.02,SW,218,1.0,2.0,86,0.00,,,0.00,Wunderground v.1.15,2013-08-22 02:45:00,
2013-08-21 22:55:00,69.7,65.7,30.02,SW,232,2.0,4.0,87,0.00,,,0.00,Wunderground v.1.15,2013-08-22 02:55:00,
2013-08-21 23:00:00,69.7,65.7,30.01,South,186,3.0,4.0,87,0.00,,,0.00,Wunderground v.1.15,2013-08-22 03:00:00,
2013-08-21 23:05:00,69.6,65.6,30.01,South,191,3.0,4.0,87,0.00,,,0.00,Wunderground v.1.15,2013-08-22 03:05:00,
2013-08-21 23:15:00,69.3,65.3,30.01,SW,218,2.0,3.0,87,0.00,,,0.00,Wunderground v.1.15,2013-08-22 03:15:00,
2013-08-21 23:20:00,69.3,65.6,30.02,SSW,213,3.0,3.0,88,0.00,,,0.00,Wunderground v.1.15,2013-08-22 03:20:00,
2013-08-21 23:25:00,69.2,65.5,30.01,SW,221,2.0,3.0,88,0.00,,,0.00,Wunderground v.1.15,2013-08-22 03:25:00,
2013-08-21 23:35:00,69.0,65.3,30.01,SSW,210,2.0,3.0,88,0.00,,,0.00,Wunderground v.1.15,2013-08-22 03:35:00,
2013-08-21 23:40:00,69.1,65.4,30.00,SSW,209,2.0,2.0,88,0.00,,,0.00,Wunderground v.1.15,2013-08-22 03:40:00,
2013-08-21 23:45:00,68.8,64.8,30.00,SSW,209,2.0,2.0,87,0.00,,,0.00,Wunderground v.1.15,2013-08-22 03:45:00,
2013-08-21 23:50:00,68.3,64.9,30.01,SSW,209,1.0,1.0,89,0.00,,,0.00,Wunderground v.1.15,2013-08-22 03:50:00,
2013-08-21 23:55:00,67.9,64.5,30.01,SSW,209,0.0,1.0,89,0.00,,,0.00,Wunderground v.1.15,2013-08-22 03:55:00,